Time;durP1;ratioP1;P1;durP2;ratioP2;P2;SDS_P1;SDS_P2;PMS_P1;PMS_P2;Temp;Humidity;BMP_temperature;BMP_pressure;BME280_temperature;BME280_humidity;BME280_pressure;Samples;Min_cycle;Max_cycle;Signal;HPM_P1;HPM_P2
2021/11/04 00:01:34;;;;;;;218.98;44.55;;;8.60;99.90;;;;;;5051446;28;20024;-74
2021/11/04 00:04:00;;;;;;;444.52;58.92;;;8.70;99.90;;;;;;5051424;28;20049;-74
2021/11/04 00:06:25;;;;;;;252.43;42.78;;;8.60;99.90;;;;;;5049936;28;20542;-74
2021/11/04 00:08:51;;;;;;;229.45;39.13;;;8.60;99.90;;;;;;5050432;28;20021;-74
2021/11/04 00:11:17;;;;;;;351.30;50.97;;;8.60;99.90;;;;;;5050405;28;20032;-73
2021/11/04 00:13:42;;;;;;;198.77;43.25;;;8.60;99.90;;;;;;5052323;28;20155;-74
2021/11/04 00:16:10;;;;;;;115.18;34.55;;;8.60;99.90;;;;;;5049404;28;20036;-74
2021/11/04 00:18:37;;;;;;;108.63;34.28;;;8.60;99.90;;;;;;5051938;28;20028;-74
2021/11/04 00:21:03;;;;;;;198.45;41.22;;;8.60;99.90;;;;;;5049642;28;20033;-74
2021/11/04 00:23:29;;;;;;;98.97;32.60;;;8.60;99.90;;;;;;5051701;28;20074;-74
2021/11/04 00:25:55;;;;;;;107.47;36.05;;;8.50;99.90;;;;;;5051233;28;20043;-74
2021/11/04 00:28:20;;;;;;;98.82;35.60;;;8.50;99.90;;;;;;5051287;28;20350;-74
2021/11/04 00:30:46;;;;;;;193.52;37.60;;;8.50;99.90;;;;;;5051588;28;20021;-74
2021/11/04 00:33:12;;;;;;;103.20;32.60;;;8.40;99.90;;;;;;5051209;28;20061;-74
2021/11/04 00:35:38;;;;;;;122.70;35.45;;;8.50;99.90;;;;;;5051117;28;20547;-74
2021/11/04 00:38:04;;;;;;;127.03;34.20;;;8.50;99.90;;;;;;5050748;28;20033;-74
2021/11/04 00:40:30;;;;;;;144.52;37.45;;;8.50;99.90;;;;;;5050552;28;20017;-74
2021/11/04 00:42:56;;;;;;;86.35;30.27;;;8.50;99.90;;;;;;5051157;28;20056;-74
2021/11/04 00:45:22;;;;;;;104.90;34.60;;;8.50;99.90;;;;;;5048756;28;20052;-74
2021/11/04 00:47:49;;;;;;;68.35;30.35;;;8.50;99.90;;;;;;5050748;28;20020;-74
2021/11/04 00:50:15;;;;;;;85.35;30.98;;;8.40;99.90;;;;;;5047251;28;20025;-74
2021/11/04 00:52:41;;;;;;;76.25;30.13;;;8.40;99.90;;;;;;5050156;28;20028;-74
2021/11/04 00:55:08;;;;;;;57.85;30.70;;;8.40;99.90;;;;;;5050246;28;20024;-74
2021/11/04 00:57:35;;;;;;;80.13;33.67;;;8.40;99.90;;;;;;5048259;28;20103;-74
2021/11/04 01:00:01;;;;;;;82.65;32.53;;;8.50;99.90;;;;;;5049741;28;20090;-73
2021/11/04 01:02:27;;;;;;;75.57;29.42;;;8.50;99.90;;;;;;5033251;28;20029;-75
2021/11/04 01:04:52;;;;;;;82.75;31.80;;;8.50;99.90;;;;;;5051087;28;20023;-74
2021/11/04 01:07:18;;;;;;;76.30;31.27;;;8.50;99.90;;;;;;5050324;28;20481;-74
2021/11/04 01:09:44;;;;;;;106.95;33.15;;;8.50;99.90;;;;;;5050096;28;20094;-74
2021/11/04 01:12:10;;;;;;;113.05;35.03;;;8.40;99.90;;;;;;5050260;28;20469;-74
2021/11/04 01:14:36;;;;;;;65.22;26.30;;;8.50;99.90;;;;;;5050756;28;20448;-74
2021/11/04 01:17:02;;;;;;;89.38;33.13;;;8.40;99.90;;;;;;5050099;28;20029;-74
2021/11/04 01:19:27;;;;;;;69.43;31.55;;;8.40;99.90;;;;;;5050824;28;20027;-74
2021/11/04 01:21:53;;;;;;;99.35;33.60;;;8.40;99.90;;;;;;5049410;28;20025;-74
2021/11/04 01:24:19;;;;;;;90.90;32.47;;;8.30;99.90;;;;;;5050054;28;20020;-74
2021/11/04 01:26:44;;;;;;;168.85;38.90;;;8.30;99.90;;;;;;5050448;28;20540;-74
2021/11/04 01:29:10;;;;;;;155.75;38.47;;;8.30;99.90;;;;;;5045980;28;20397;-74
2021/11/04 01:31:36;;;;;;;113.53;36.15;;;8.30;99.90;;;;;;5049225;28;20013;-74
2021/11/04 01:34:02;;;;;;;75.93;31.23;;;8.30;99.90;;;;;;5049832;28;20041;-74
2021/11/04 01:36:27;;;;;;;91.93;33.50;;;8.40;99.90;;;;;;5031559;28;20501;-74
2021/11/04 01:38:53;;;;;;;133.05;38.15;;;8.30;99.90;;;;;;5050473;28;20117;-74
2021/11/04 01:41:18;;;;;;;142.60;36.60;;;8.30;99.90;;;;;;5049262;28;20473;-74
2021/11/04 01:43:44;;;;;;;83.00;32.35;;;8.30;99.90;;;;;;5049070;28;20032;-74
2021/11/04 01:46:12;;;;;;;109.15;36.38;;;8.30;99.90;;;;;;5031430;28;20028;-74
2021/11/04 01:48:38;;;;;;;132.07;35.88;;;8.30;99.90;;;;;;5050315;28;20745;-74
2021/11/04 01:51:04;;;;;;;101.10;35.33;;;8.30;99.90;;;;;;5049226;28;20397;-74
2021/11/04 01:53:30;;;;;;;74.95;33.13;;;8.30;99.90;;;;;;5050270;28;20481;-74
2021/11/04 01:55:55;;;;;;;126.13;36.15;;;8.30;99.90;;;;;;5049629;28;20024;-74
2021/11/04 01:58:21;;;;;;;118.72;35.85;;;8.30;99.90;;;;;;5048306;28;20029;-74
2021/11/04 02:00:47;;;;;;;111.20;33.28;;;8.30;99.90;;;;;;5049743;28;20047;-74
2021/11/04 02:03:30;;;;;;;154.80;37.60;;;8.30;99.90;;;;;;5048215;28;20370;-75
2021/11/04 02:06:07;;;;;;;122.25;37.72;;;8.30;99.90;;;;;;5048907;28;20049;-74
2021/11/04 02:08:59;;;;;;;111.40;35.30;;;8.30;99.90;;;;;;5050004;28;20021;-75
2021/11/04 02:11:34;;;;;;;133.18;36.72;;;8.30;99.90;;;;;;5048544;28;20469;-74
2021/11/04 02:14:04;;;;;;;252.20;43.65;;;8.30;99.90;;;;;;5049609;28;20397;-74
2021/11/04 02:16:31;;;;;;;179.43;37.45;;;8.40;99.90;;;;;;5049843;28;20025;-74
2021/11/04 02:19:03;;;;;;;302.45;49.45;;;8.30;99.90;;;;;;5049652;28;20025;-74
2021/11/04 02:21:38;;;;;;;134.27;34.70;;;8.10;99.90;;;;;;5045310;28;20029;-74
2021/11/04 02:24:03;;;;;;;98.28;35.70;;;8.20;99.90;;;;;;5046984;28;20025;-74
2021/11/04 02:26:31;;;;;;;68.22;33.40;;;8.20;99.90;;;;;;5048267;28;20546;-74
2021/11/04 02:28:58;;;;;;;141.30;37.28;;;8.20;99.90;;;;;;5047710;28;20055;-74
2021/11/04 02:31:24;;;;;;;187.15;41.88;;;8.00;99.90;;;;;;5031697;28;20021;-74
2021/11/04 02:33:51;;;;;;;125.60;37.58;;;8.10;99.90;;;;;;5052995;28;20029;-74
2021/11/04 02:36:17;;;;;;;82.53;34.17;;;7.80;99.90;;;;;;5052779;28;20041;-73
2021/11/04 02:38:44;;;;;;;116.78;37.70;;;8.00;99.90;;;;;;5035971;28;20465;-74
2021/11/04 02:41:10;;;;;;;83.03;37.25;;;8.10;99.90;;;;;;5050772;28;20082;-74
2021/11/04 02:43:37;;;;;;;216.60;45.97;;;8.10;99.90;;;;;;5053751;28;20036;-74
2021/11/04 02:46:04;;;;;;;82.32;33.72;;;8.10;99.90;;;;;;5035006;28;20115;-75
2021/11/04 02:48:30;;;;;;;74.93;36.17;;;8.10;99.90;;;;;;5035422;28;20017;-75
2021/11/04 02:50:56;;;;;;;73.32;34.92;;;8.20;99.90;;;;;;5035115;28;20114;-74
2021/11/04 02:53:24;;;;;;;78.63;36.00;;;8.20;99.90;;;;;;5053024;28;20033;-75
2021/11/04 02:55:50;;;;;;;141.50;40.67;;;8.20;99.90;;;;;;5054932;28;20500;-75
2021/11/04 02:58:17;;;;;;;106.57;37.33;;;8.20;99.90;;;;;;5053489;28;20031;-74
2021/11/04 03:00:47;;;;;;;292.90;54.35;;;8.00;99.90;;;;;;5054261;28;20449;-74
2021/11/04 03:03:13;;;;;;;92.68;35.22;;;8.00;99.90;;;;;;5054616;28;20037;-74
2021/11/04 03:05:38;;;;;;;81.47;34.05;;;7.90;99.90;;;;;;5054543;28;20086;-74
2021/11/04 03:08:04;;;;;;;92.35;36.08;;;7.90;99.90;;;;;;5053953;28;20033;-74
2021/11/04 03:10:30;;;;;;;70.95;34.95;;;8.00;99.90;;;;;;5055128;28;20032;-74
2021/11/04 03:12:56;;;;;;;73.47;32.72;;;8.00;99.90;;;;;;5054104;28;20037;-74
2021/11/04 03:15:23;;;;;;;87.38;36.60;;;7.90;99.90;;;;;;5052889;28;20032;-74
2021/11/04 03:17:52;;;;;;;88.97;36.35;;;8.00;99.90;;;;;;5054247;28;20051;-74
2021/11/04 03:20:19;;;;;;;89.20;38.25;;;8.00;99.90;;;;;;5053341;28;20401;-74
2021/11/04 03:22:46;;;;;;;81.45;36.53;;;8.10;99.90;;;;;;5051229;28;20032;-74
2021/11/04 03:25:18;;;;;;;141.45;39.85;;;8.10;99.90;;;;;;5053361;28;20021;-75
2021/11/04 03:27:46;;;;;;;98.45;38.90;;;8.10;99.90;;;;;;5053126;28;20424;-75
2021/11/04 03:30:14;;;;;;;73.28;35.50;;;8.10;99.90;;;;;;5053175;28;20027;-75
2021/11/04 03:32:42;;;;;;;73.35;36.38;;;8.20;99.90;;;;;;5053956;28;20504;-74
2021/11/04 03:35:10;;;;;;;104.32;39.65;;;8.30;99.90;;;;;;5054011;28;20123;-74
2021/11/04 03:37:38;;;;;;;72.43;35.78;;;8.20;99.90;;;;;;5054170;28;20017;-74
2021/11/04 03:40:05;;;;;;;77.40;36.95;;;8.20;99.90;;;;;;5052954;28;20021;-74
2021/11/04 03:42:31;;;;;;;103.40;39.35;;;8.20;99.90;;;;;;5053935;28;20025;-74
2021/11/04 03:44:59;;;;;;;215.75;52.95;;;8.30;99.90;;;;;;5053282;28;20112;-74
2021/11/04 03:47:29;;;;;;;98.72;38.30;;;8.20;99.90;;;;;;5053376;28;20025;-74
2021/11/04 03:49:56;;;;;;;84.07;38.65;;;8.20;99.90;;;;;;5053531;28;20029;-74
2021/11/04 03:52:22;;;;;;;92.95;37.92;;;8.10;99.90;;;;;;5053903;28;20053;-75
2021/11/04 03:54:48;;;;;;;84.43;37.85;;;8.10;99.90;;;;;;5053958;28;20078;-74
2021/11/04 03:57:14;;;;;;;116.45;41.42;;;8.20;99.90;;;;;;5053556;28;20025;-74
2021/11/04 03:59:40;;;;;;;127.90;46.92;;;8.30;99.90;;;;;;5049640;28;20105;-75
2021/11/04 04:02:08;;;;;;;75.40;40.38;;;8.30;99.90;;;;;;5048396;28;20358;-74
2021/11/04 04:04:34;;;;;;;90.97;40.47;;;8.20;99.90;;;;;;5034921;28;20029;-74
2021/11/04 04:07:00;;;;;;;116.47;44.97;;;8.30;99.90;;;;;;5053177;28;20017;-75
2021/11/04 04:09:25;;;;;;;72.28;36.58;;;8.30;99.90;;;;;;5053539;28;20029;-74
2021/11/04 04:11:52;;;;;;;80.70;37.33;;;8.30;99.90;;;;;;5053238;28;20107;-75
2021/11/04 04:14:18;;;;;;;171.00;48.38;;;8.30;99.90;;;;;;5052989;28;20028;-75
2021/11/04 04:16:44;;;;;;;317.02;64.60;;;8.40;99.90;;;;;;5053003;28;20029;-74
2021/11/04 04:19:10;;;;;;;95.00;42.08;;;8.40;99.90;;;;;;5052693;28;20104;-74
2021/11/04 04:21:36;;;;;;;93.43;41.35;;;8.40;99.90;;;;;;5052650;28;20473;-74
2021/11/04 04:24:03;;;;;;;101.47;42.97;;;8.40;99.90;;;;;;5052756;28;20650;-74
2021/11/04 04:26:28;;;;;;;87.75;41.78;;;8.40;99.90;;;;;;5053492;28;20037;-75
2021/11/04 04:28:54;;;;;;;71.93;35.85;;;8.30;99.90;;;;;;5053254;28;20029;-74
2021/11/04 04:31:20;;;;;;;77.80;39.20;;;8.30;99.90;;;;;;5051630;28;20025;-74
2021/11/04 04:33:45;;;;;;;84.65;43.85;;;8.40;99.90;;;;;;5045140;28;20125;-74
2021/11/04 04:36:11;;;;;;;64.53;35.45;;;8.40;99.90;;;;;;5034607;28;20071;-74
2021/11/04 04:38:36;;;;;;;69.18;37.17;;;8.40;99.90;;;;;;5052270;28;20552;-74
2021/11/04 04:41:02;;;;;;;76.18;39.63;;;8.50;99.90;;;;;;5051439;28;20053;-74
2021/11/04 04:43:28;;;;;;;74.07;40.10;;;8.40;99.90;;;;;;5052946;28;20047;-74
2021/11/04 04:45:54;;;;;;;70.60;37.75;;;8.50;99.90;;;;;;5052453;28;20412;-74
2021/11/04 04:48:20;;;;;;;71.82;40.25;;;8.40;99.90;;;;;;5052055;28;20036;-74
2021/11/04 04:50:46;;;;;;;92.35;42.05;;;8.40;99.90;;;;;;5034638;28;20020;-74
2021/11/04 04:53:12;;;;;;;78.07;40.28;;;8.50;99.90;;;;;;5052592;28;20086;-74
2021/11/04 04:55:38;;;;;;;79.25;40.50;;;8.40;99.90;;;;;;5052178;28;20051;-75
2021/11/04 04:58:06;;;;;;;92.70;45.72;;;8.50;99.90;;;;;;5052053;28;20067;-74
2021/11/04 05:00:32;;;;;;;81.80;44.53;;;8.50;99.90;;;;;;5051045;28;20476;-74
2021/11/04 05:02:57;;;;;;;83.95;46.30;;;8.50;99.90;;;;;;5051736;28;20531;-74
2021/11/04 05:05:23;;;;;;;92.30;45.53;;;8.50;99.90;;;;;;5049529;28;20025;-74
2021/11/04 05:07:49;;;;;;;92.50;44.67;;;8.50;99.90;;;;;;5051752;28;20626;-74
2021/11/04 05:10:15;;;;;;;108.78;49.30;;;8.40;99.90;;;;;;5050412;28;20630;-74
2021/11/04 05:12:42;;;;;;;119.15;50.25;;;8.40;99.90;;;;;;5052537;28;20149;-74
2021/11/04 05:15:07;;;;;;;155.75;56.10;;;8.30;99.90;;;;;;5051683;28;20029;-75
2021/11/04 05:17:34;;;;;;;134.10;54.55;;;8.40;99.90;;;;;;5052217;28;20075;-74
2021/11/04 05:20:04;;;;;;;148.25;54.83;;;8.40;99.90;;;;;;5033136;28;20017;-74
2021/11/04 05:22:29;;;;;;;170.23;56.65;;;8.40;99.90;;;;;;5052326;28;20028;-74
2021/11/04 05:24:55;;;;;;;164.02;56.78;;;8.50;99.90;;;;;;5051527;28;20029;-74
2021/11/04 05:27:20;;;;;;;152.73;59.05;;;8.40;99.90;;;;;;5052240;28;20021;-75
2021/11/04 05:29:46;;;;;;;162.82;58.50;;;8.40;99.90;;;;;;5048572;28;20480;-74
2021/11/04 05:32:12;;;;;;;176.02;60.50;;;8.40;99.90;;;;;;5049494;28;20036;-74
2021/11/04 05:34:39;;;;;;;153.55;59.08;;;8.40;99.90;;;;;;5045860;28;20040;-74
2021/11/04 05:37:07;;;;;;;210.43;67.55;;;8.40;99.90;;;;;;5051328;28;20029;-74
2021/11/04 05:39:35;;;;;;;145.57;60.13;;;8.40;99.90;;;;;;5051832;28;20055;-74
2021/11/04 05:42:02;;;;;;;161.50;61.38;;;8.50;99.90;;;;;;5048334;28;20032;-75
2021/11/04 05:44:28;;;;;;;174.18;60.15;;;8.50;99.90;;;;;;5051202;28;20557;-74
2021/11/04 05:46:53;;;;;;;146.90;56.65;;;8.50;99.90;;;;;;5051410;28;20509;-74
2021/11/04 05:49:19;;;;;;;144.10;57.60;;;8.50;99.90;;;;;;5050796;28;20025;-74
2021/11/04 05:51:44;;;;;;;128.40;51.72;;;8.40;99.90;;;;;;5050659;28;20017;-74
2021/11/04 05:54:10;;;;;;;144.30;54.10;;;8.50;99.90;;;;;;5050005;28;20473;-74
2021/11/04 05:56:35;;;;;;;192.23;63.67;;;8.60;99.90;;;;;;5051259;28;20021;-74
2021/11/04 05:59:01;;;;;;;126.13;51.65;;;8.50;99.90;;;;;;5031368;28;20036;-74
2021/11/04 06:01:28;;;;;;;118.70;53.15;;;8.50;99.90;;;;;;5032887;28;20526;-74
2021/11/04 06:03:54;;;;;;;102.30;48.70;;;8.40;99.90;;;;;;5051533;28;20033;-74
2021/11/04 06:06:20;;;;;;;119.10;51.80;;;8.40;99.90;;;;;;5049696;28;20105;-74
2021/11/04 06:08:45;;;;;;;109.07;51.25;;;8.40;99.90;;;;;;5046770;28;20017;-74
2021/11/04 06:11:11;;;;;;;117.53;50.47;;;8.40;99.90;;;;;;5050722;28;20024;-74
2021/11/04 06:13:36;;;;;;;117.95;51.15;;;8.40;99.90;;;;;;5050450;28;20087;-74
2021/11/04 06:16:02;;;;;;;106.32;47.38;;;8.30;99.90;;;;;;5050921;28;20381;-74
2021/11/04 06:18:28;;;;;;;112.03;48.67;;;8.40;99.90;;;;;;5033389;28;20127;-74
2021/11/04 06:20:54;;;;;;;130.27;54.20;;;8.40;99.90;;;;;;5050702;28;20021;-74
2021/11/04 06:23:19;;;;;;;138.63;56.35;;;8.50;99.90;;;;;;5050162;28;20025;-74
2021/11/04 06:25:45;;;;;;;115.40;50.47;;;8.30;99.90;;;;;;5050452;28;20032;-74
2021/11/04 06:28:10;;;;;;;119.30;49.67;;;8.30;99.90;;;;;;5050665;28;20053;-74
2021/11/04 06:30:36;;;;;;;128.30;54.53;;;8.40;99.90;;;;;;5050794;28;20477;-74
2021/11/04 06:33:02;;;;;;;135.05;54.97;;;8.40;99.90;;;;;;5049942;28;20095;-74
2021/11/04 06:35:28;;;;;;;123.88;52.05;;;8.40;99.90;;;;;;5050674;28;20381;-74
2021/11/04 06:37:53;;;;;;;141.15;56.08;;;8.40;99.90;;;;;;5051304;28;20075;-74
2021/11/04 06:40:24;;;;;;;147.32;57.08;;;8.40;99.90;;;;;;5050089;28;20021;-74
2021/11/04 06:42:50;;;;;;;124.40;49.30;;;8.30;99.90;;;;;;5050548;28;20033;-74
2021/11/04 06:45:16;;;;;;;129.02;50.55;;;8.30;99.90;;;;;;5050957;28;20029;-74
2021/11/04 06:47:47;;;;;;;121.82;46.72;;;8.30;99.90;;;;;;5050873;28;20029;-74
2021/11/04 06:50:16;;;;;;;147.98;53.15;;;8.30;99.90;;;;;;5050454;28;20020;-74
2021/11/04 06:52:51;;;;;;;147.50;53.17;;;8.40;99.90;;;;;;5050988;28;20473;-74
2021/11/04 06:55:21;;;;;;;166.77;53.70;;;8.40;99.90;;;;;;5049842;28;20094;-74
2021/11/04 06:57:50;;;;;;;153.27;51.92;;;8.50;99.90;;;;;;5051243;28;20028;-74
2021/11/04 07:00:17;;;;;;;137.32;50.25;;;8.40;99.90;;;;;;5049903;28;20025;-74
2021/11/04 07:02:50;;;;;;;138.68;51.60;;;8.40;99.90;;;;;;5050849;28;20036;-74
2021/11/04 07:05:18;;;;;;;144.63;54.92;;;8.40;99.90;;;;;;5050760;28;20033;-74
2021/11/04 07:07:47;;;;;;;129.57;50.17;;;8.50;99.90;;;;;;5050939;28;20055;-74
2021/11/04 07:10:15;;;;;;;152.15;51.95;;;8.40;99.90;;;;;;5024902;28;20350;-74
2021/11/04 07:12:47;;;;;;;179.73;57.80;;;8.40;99.90;;;;;;5049216;28;20017;-75
2021/11/04 07:15:14;;;;;;;129.65;48.90;;;8.50;99.90;;;;;;5050379;28;20021;-74
2021/11/04 07:17:42;;;;;;;200.25;51.67;;;8.50;99.90;;;;;;5048363;28;20102;-74
2021/11/04 07:20:09;;;;;;;113.38;44.60;;;8.40;99.90;;;;;;5053441;28;20013;-73
2021/11/04 07:22:47;;;;;;;133.80;50.08;;;8.30;99.90;;;;;;5054408;28;20025;-74
2021/11/04 07:25:19;;;;;;;138.15;50.83;;;8.30;99.90;;;;;;5035706;28;20152;-75
2021/11/04 07:28:07;;;;;;;217.50;57.10;;;8.30;99.90;;;;;;5053249;28;20025;-74
2021/11/04 07:30:34;;;;;;;129.95;48.60;;;8.30;99.90;;;;;;5054186;28;20275;-74
2021/11/04 07:33:01;;;;;;;166.20;47.53;;;8.30;99.90;;;;;;5052474;28;20052;-74
2021/11/04 07:35:35;;;;;;;130.63;47.67;;;8.30;99.90;;;;;;5053229;28;20024;-74
2021/11/04 07:38:03;;;;;;;303.02;56.50;;;8.30;99.90;;;;;;5053587;28;20029;-74
2021/11/04 07:40:30;;;;;;;116.70;48.42;;;8.20;99.90;;;;;;5052088;28;20029;-74
2021/11/04 07:42:57;;;;;;;186.80;57.60;;;8.30;99.90;;;;;;5053609;28;20041;-74
2021/11/04 07:45:26;;;;;;;122.82;47.55;;;8.30;99.90;;;;;;5053741;28;20021;-74
2021/11/04 07:47:52;;;;;;;174.50;53.17;;;8.30;99.90;;;;;;5053564;28;20083;-74
2021/11/04 07:50:22;;;;;;;203.05;55.20;;;8.30;99.90;;;;;;5051252;28;20068;-75
2021/11/04 07:52:49;;;;;;;140.63;50.42;;;8.30;99.90;;;;;;5048574;28;20186;-74
2021/11/04 07:55:15;;;;;;;123.90;47.28;;;8.30;99.90;;;;;;5052897;28;20060;-74
2021/11/04 07:57:41;;;;;;;147.27;45.75;;;8.30;99.90;;;;;;5051713;28;20047;-74
2021/11/04 08:00:10;;;;;;;169.27;47.67;;;8.20;99.90;;;;;;5052281;28;20017;-75
2021/11/04 08:02:36;;;;;;;121.57;44.83;;;8.20;99.90;;;;;;5049474;28;20021;-74
2021/11/04 08:05:02;;;;;;;206.93;48.75;;;8.20;99.90;;;;;;5052374;28;20025;-75
2021/11/04 08:07:32;;;;;;;117.07;42.30;;;8.20;99.90;;;;;;5052717;28;20021;-75
2021/11/04 08:09:58;;;;;;;186.40;46.55;;;8.20;99.90;;;;;;5050937;28;20013;-75
2021/11/04 08:12:24;;;;;;;139.18;43.45;;;8.30;99.90;;;;;;5052786;28;20041;-76
2021/11/04 08:14:50;;;;;;;134.15;42.85;;;8.30;99.90;;;;;;5053447;28;20024;-75
2021/11/04 08:17:15;;;;;;;106.53;39.28;;;8.30;99.90;;;;;;5048939;28;20036;-75
2021/11/04 08:19:41;;;;;;;96.93;41.35;;;8.30;99.90;;;;;;5028780;28;20024;-75
2021/11/04 08:22:07;;;;;;;197.88;49.72;;;8.20;99.90;;;;;;5051275;28;20104;-75
2021/11/04 08:24:32;;;;;;;73.82;36.10;;;8.20;99.90;;;;;;5034413;28;20020;-75
2021/11/04 08:26:58;;;;;;;110.43;39.63;;;8.20;99.90;;;;;;5048296;28;20025;-76
2021/11/04 08:29:24;;;;;;;86.45;39.58;;;8.20;99.90;;;;;;5050604;28;20025;-75
2021/11/04 08:31:50;;;;;;;94.20;37.63;;;8.30;99.90;;;;;;5050358;28;20031;-76
2021/11/04 08:34:15;;;;;;;110.32;41.55;;;8.30;99.90;;;;;;5051470;28;20421;-74
2021/11/04 08:36:43;;;;;;;74.88;37.47;;;8.30;99.90;;;;;;5052398;28;20032;-74
2021/11/04 08:39:09;;;;;;;89.95;37.20;;;8.40;99.90;;;;;;5049741;28;20484;-75
2021/11/04 08:41:34;;;;;;;73.38;36.60;;;8.30;99.90;;;;;;5051272;28;20021;-75
2021/11/04 08:44:01;;;;;;;73.55;38.92;;;8.30;99.90;;;;;;5050359;28;20075;-75
2021/11/04 08:46:26;;;;;;;79.22;37.65;;;8.40;99.90;;;;;;5051772;28;20021;-74
2021/11/04 08:48:52;;;;;;;76.93;38.28;;;8.40;99.90;;;;;;5049954;28;20024;-75
2021/11/04 08:51:17;;;;;;;125.03;45.45;;;8.50;99.90;;;;;;5049408;28;20025;-74
2021/11/04 08:53:43;;;;;;;100.00;42.90;;;8.50;99.90;;;;;;5050435;28;20485;-74
2021/11/04 08:56:09;;;;;;;83.65;40.58;;;8.50;99.90;;;;;;5051018;28;20033;-74
2021/11/04 08:58:34;;;;;;;82.32;40.90;;;8.50;99.90;;;;;;5051965;28;20366;-74
2021/11/04 09:01:01;;;;;;;109.63;42.75;;;8.50;99.90;;;;;;5048357;28;20505;-75
2021/11/04 09:03:27;;;;;;;125.53;46.72;;;8.50;99.90;;;;;;5051967;28;20083;-75
2021/11/04 09:05:53;;;;;;;191.75;53.05;;;8.50;99.90;;;;;;5051464;28;20025;-75
2021/11/04 09:08:19;;;;;;;100.28;44.22;;;8.50;99.90;;;;;;5051487;28;20029;-75
2021/11/04 09:10:45;;;;;;;118.90;48.00;;;8.50;99.90;;;;;;5051511;28;20469;-76
2021/11/04 09:13:10;;;;;;;109.60;43.20;;;8.50;99.90;;;;;;5050983;28;20029;-75
2021/11/04 09:15:38;;;;;;;115.03;44.20;;;8.60;99.90;;;;;;5051090;28;20021;-75
2021/11/04 09:18:04;;;;;;;92.95;40.75;;;8.60;99.90;;;;;;5049545;28;20047;-74
2021/11/04 09:20:30;;;;;;;95.38;42.28;;;8.70;99.90;;;;;;5047502;28;20017;-78
2021/11/04 09:22:56;;;;;;;99.95;43.90;;;8.70;99.90;;;;;;5050825;28;20074;-75
2021/11/04 09:25:22;;;;;;;98.57;45.83;;;8.80;99.90;;;;;;5049147;28;20031;-75
2021/11/04 09:27:50;;;;;;;101.60;45.95;;;8.90;99.90;;;;;;5050682;28;20028;-75
2021/11/04 09:30:17;;;;;;;144.90;51.00;;;8.90;99.90;;;;;;5050147;28;20033;-76
2021/11/04 09:32:44;;;;;;;134.63;50.78;;;9.00;99.90;;;;;;5050994;28;20033;-74
2021/11/04 09:35:10;;;;;;;105.45;51.53;;;9.00;99.90;;;;;;5049198;28;20044;-76
2021/11/04 09:37:36;;;;;;;106.18;50.72;;;9.20;99.90;;;;;;5051410;28;20518;-75
2021/11/04 09:40:04;;;;;;;140.68;55.38;;;9.10;99.90;;;;;;5048410;28;20366;-75
2021/11/04 09:42:30;;;;;;;130.07;54.75;;;9.10;99.90;;;;;;5047901;28;20013;-75
2021/11/04 09:44:56;;;;;;;117.90;52.60;;;9.10;99.90;;;;;;5050323;28;20028;-75
2021/11/04 09:47:26;;;;;;;98.22;46.75;;;9.20;99.90;;;;;;5049233;28;20025;-75
2021/11/04 09:49:54;;;;;;;103.18;48.67;;;9.20;99.90;;;;;;5046805;28;20019;-74
2021/11/04 09:52:33;;;;;;;99.93;51.90;;;9.30;99.90;;;;;;5048240;28;20051;-75
2021/11/04 09:54:59;;;;;;;96.63;48.60;;;9.30;99.90;;;;;;5047826;28;20066;-75
2021/11/04 09:57:27;;;;;;;120.47;55.63;;;9.30;99.90;;;;;;5033103;28;20166;-76
2021/11/04 09:59:56;;;;;;;115.78;53.33;;;9.40;99.90;;;;;;5050262;28;20385;-76
2021/11/04 10:02:25;;;;;;;114.97;55.40;;;9.30;99.90;;;;;;5031501;28;20554;-75
2021/11/04 10:04:52;;;;;;;123.72;59.85;;;9.40;99.90;;;;;;5050464;28;20024;-75
2021/11/04 10:07:18;;;;;;;111.85;55.00;;;9.40;99.90;;;;;;5046056;28;20037;-75
2021/11/04 10:09:59;;;;;;;118.20;57.38;;;9.50;99.90;;;;;;5050849;28;20091;-75
2021/11/04 10:12:26;;;;;;;150.95;64.72;;;9.50;99.90;;;;;;5049079;28;20047;-75
2021/11/04 10:14:52;;;;;;;135.85;61.40;;;9.50;99.90;;;;;;5050970;28;20028;-76
2021/11/04 10:17:37;;;;;;;123.22;58.22;;;9.40;99.90;;;;;;5049579;28;20245;-75
2021/11/04 10:20:15;;;;;;;117.15;58.35;;;9.40;99.90;;;;;;5047909;28;20116;-75
2021/11/04 10:22:40;;;;;;;125.65;61.08;;;9.40;99.90;;;;;;5049615;28;20020;-75
2021/11/04 10:25:20;;;;;;;124.68;57.90;;;9.50;99.90;;;;;;5050530;28;20037;-75
2021/11/04 10:27:46;;;;;;;106.95;55.08;;;9.50;99.90;;;;;;5049821;28;20405;-75
2021/11/04 10:30:34;;;;;;;128.00;62.55;;;9.60;99.90;;;;;;5047972;28;20028;-75
2021/11/04 10:33:16;;;;;;;147.35;65.28;;;9.60;99.90;;;;;;5053341;28;20037;-75
2021/11/04 10:35:42;;;;;;;119.15;60.95;;;9.60;99.90;;;;;;5049660;28;20029;-75
2021/11/04 10:38:07;;;;;;;123.32;62.38;;;9.70;99.90;;;;;;5043337;28;20037;-75
2021/11/04 10:40:33;;;;;;;120.88;59.13;;;9.70;99.90;;;;;;5031133;28;20026;-75
2021/11/04 10:42:59;;;;;;;124.80;62.17;;;9.70;99.90;;;;;;5042406;28;20045;-75
2021/11/04 10:45:28;;;;;;;129.75;61.90;;;9.70;99.90;;;;;;5052460;28;20053;-74
2021/11/04 10:48:19;;;;;;;126.60;60.63;;;9.70;99.90;;;;;;5052341;28;20025;-75
2021/11/04 10:50:45;;;;;;;131.02;64.38;;;9.70;99.90;;;;;;5052697;28;20031;-75
2021/11/04 10:53:22;;;;;;;117.75;59.00;;;9.70;99.90;;;;;;5053321;28;20067;-75
2021/11/04 10:55:56;;;;;;;126.25;63.03;;;9.70;99.90;;;;;;5056579;28;20031;-75
2021/11/04 10:58:30;;;;;;;128.75;65.32;;;9.80;99.90;;;;;;5056174;28;20381;-75
2021/11/04 11:00:57;;;;;;;129.45;63.10;;;9.80;99.90;;;;;;5071930;28;20029;-75
2021/11/04 11:03:24;;;;;;;155.07;71.03;;;9.80;99.90;;;;;;5055996;28;20032;-74
2021/11/04 11:05:55;;;;;;;144.00;69.25;;;9.80;99.90;;;;;;5037500;28;20025;-74
2021/11/04 11:08:21;;;;;;;122.28;63.50;;;9.80;99.90;;;;;;5036122;28;20022;-74
2021/11/04 11:10:47;;;;;;;125.75;66.00;;;9.80;99.90;;;;;;5046120;28;20060;-74
2021/11/04 11:13:12;;;;;;;119.43;62.15;;;9.80;99.90;;;;;;5055959;28;20068;-75
2021/11/04 11:15:40;;;;;;;123.57;62.72;;;9.80;99.90;;;;;;5055883;28;20373;-74
2021/11/04 11:18:08;;;;;;;120.75;64.75;;;9.90;99.90;;;;;;5054829;28;20025;-75
2021/11/04 11:20:43;;;;;;;124.93;63.83;;;9.90;99.90;;;;;;5055664;28;20096;-75
2021/11/04 11:23:11;;;;;;;151.20;71.22;;;10.00;99.90;;;;;;5056068;28;20099;-75
2021/11/04 11:25:37;;;;;;;138.50;67.72;;;10.00;99.90;;;;;;5055899;28;20017;-75
2021/11/04 11:28:04;;;;;;;131.85;67.13;;;10.10;99.90;;;;;;5055679;28;20029;-75
2021/11/04 11:30:30;;;;;;;134.23;67.95;;;10.00;99.90;;;;;;5055681;28;20033;-75
2021/11/04 11:33:18;;;;;;;121.82;63.67;;;10.00;99.90;;;;;;5055344;28;20087;-75
2021/11/04 11:36:07;;;;;;;131.45;65.90;;;10.10;99.90;;;;;;5055878;28;20021;-75
2021/11/04 11:38:56;;;;;;;105.45;62.35;;;10.10;99.90;;;;;;5055536;28;20028;-75
2021/11/04 11:41:23;;;;;;;104.32;62.30;;;10.10;99.90;;;;;;5055503;28;20043;-76
2021/11/04 11:43:56;;;;;;;114.38;62.17;;;10.10;99.90;;;;;;5037858;28;20175;-75
2021/11/04 11:46:22;;;;;;;109.95;62.17;;;10.20;99.90;;;;;;5035442;28;20082;-75
2021/11/04 11:49:12;;;;;;;108.45;60.92;;;10.20;99.90;;;;;;5046722;28;20105;-75
2021/11/04 11:51:42;;;;;;;118.07;61.22;;;10.20;99.90;;;;;;5039482;28;20028;-75
2021/11/04 11:54:08;;;;;;;112.65;61.95;;;10.10;99.90;;;;;;5034856;28;20037;-75
2021/11/04 11:56:34;;;;;;;106.32;60.22;;;10.20;99.90;;;;;;5049523;28;20488;-75
2021/11/04 11:59:27;;;;;;;116.32;62.95;;;10.20;99.90;;;;;;5054904;28;20024;-75
2021/11/04 12:01:53;;;;;;;123.25;61.15;;;10.20;99.90;;;;;;5035104;28;20026;-75
2021/11/04 12:04:26;;;;;;;111.15;61.22;;;10.20;99.90;;;;;;5017382;28;20103;-75
2021/11/04 12:06:56;;;;;;;113.82;60.00;;;10.20;99.90;;;;;;5035391;28;20037;-74
2021/11/04 12:09:39;;;;;;;114.40;60.92;;;10.20;99.90;;;;;;5042670;28;20377;-76
2021/11/04 12:12:07;;;;;;;128.07;66.20;;;10.20;99.90;;;;;;5054157;28;20028;-76
2021/11/04 12:14:35;;;;;;;115.90;60.58;;;10.20;99.90;;;;;;5054597;28;20442;-76
2021/11/04 12:17:04;;;;;;;132.85;67.78;;;10.20;99.90;;;;;;5055184;28;20139;-76
2021/11/04 12:19:53;;;;;;;107.18;59.50;;;10.30;99.90;;;;;;5036647;28;20059;-76
2021/11/04 12:22:18;;;;;;;133.38;63.50;;;10.30;99.90;;;;;;5055337;28;20070;-77
2021/11/04 12:24:50;;;;;;;136.50;66.45;;;10.30;99.90;;;;;;5053284;28;20028;-77
2021/11/04 12:27:17;;;;;;;134.90;64.53;;;10.20;99.90;;;;;;5054609;28;20380;-78
2021/11/04 12:29:44;;;;;;;117.03;64.22;;;10.20;99.90;;;;;;5053991;28;20021;-78
2021/11/04 12:32:14;;;;;;;137.52;66.00;;;10.30;99.90;;;;;;5054168;28;20416;-78